Time;durP1;ratioP1;P1;durP2;ratioP2;P2;SDS_P1;SDS_P2;PMS_P1;PMS_P2;Temp;Humidity;BMP_temperature;BMP_pressure;BME280_temperature;BME280_humidity;BME280_pressure;Samples;Min_cycle;Max_cycle;Signal;HPM_P1;HPM_P2
2023/09/29 00:01:32;;;;;;;15.48;3.17;;;;;;;;;;5036075;28;20053;-71
2023/09/29 00:03:59;;;;;;;8.52;3.10;;;;;;;;;;5050944;28;20061;-71
2023/09/29 00:06:26;;;;;;;12.70;3.13;;;;;;;;;;5037591;28;20049;-71
2023/09/29 00:08:53;;;;;;;11.70;3.17;;;;;;;;;;5028037;28;20068;-71
2023/09/29 00:11:20;;;;;;;12.90;3.10;;;;;;;;;;5059409;28;20055;-71
2023/09/29 00:13:47;;;;;;;12.38;3.20;;;;;;;;;;5060738;28;20398;-71
2023/09/29 00:16:15;;;;;;;18.02;3.20;;;;;;;;;;5061508;28;20053;-71
2023/09/29 00:18:42;;;;;;;15.68;2.75;;;;;;;;;;5044185;28;20348;-71
2023/09/29 00:21:09;;;;;;;9.40;2.63;;;;;;;;;;5061802;28;20139;-71
2023/09/29 00:23:36;;;;;;;13.18;3.05;;;;;;;;;;5059665;28;20063;-71
2023/09/29 00:26:03;;;;;;;12.40;2.67;;;;;;;;;;5065098;28;20048;-72
2023/09/29 00:28:30;;;;;;;10.77;2.63;;;;;;;;;;5050662;28;20056;-70
2023/09/29 00:30:57;;;;;;;8.80;2.70;;;;;;;;;;5059917;28;20079;-71
2023/09/29 00:33:26;;;;;;;13.30;2.90;;;;;;;;;;5060374;28;20056;-70
2023/09/29 00:35:53;;;;;;;10.05;2.72;;;;;;;;;;5061155;28;20052;-71
2023/09/29 00:38:20;;;;;;;17.58;2.95;;;;;;;;;;5056164;28;20071;-72
2023/09/29 00:40:47;;;;;;;11.88;2.63;;;;;;;;;;5068991;28;20056;-71
2023/09/29 00:43:15;;;;;;;12.85;3.42;;;;;;;;;;5081415;28;20048;-71
2023/09/29 00:45:44;;;;;;;13.80;3.20;;;;;;;;;;5077901;28;20151;-72
2023/09/29 00:48:12;;;;;;;8.82;2.85;;;;;;;;;;5059470;28;20052;-71
2023/09/29 00:50:42;;;;;;;11.18;3.00;;;;;;;;;;5054342;28;20048;-71
2023/09/29 00:53:13;;;;;;;15.82;3.08;;;;;;;;;;5059412;28;20068;-71
2023/09/29 00:55:42;;;;;;;10.32;2.65;;;;;;;;;;5059367;28;20062;-71
2023/09/29 00:58:09;;;;;;;10.00;2.50;;;;;;;;;;5057171;28;20052;-72
2023/09/29 01:00:40;;;;;;;14.63;2.90;;;;;;;;;;5049372;28;20052;-71
2023/09/29 01:03:10;;;;;;;10.23;2.97;;;;;;;;;;5070935;28;20149;-71
2023/09/29 01:05:38;;;;;;;9.20;2.60;;;;;;;;;;5061911;28;20067;-71
2023/09/29 01:08:09;;;;;;;8.85;2.58;;;;;;;;;;5057031;28;20120;-71
2023/09/29 01:10:36;;;;;;;9.23;2.60;;;;;;;;;;5053552;28;20099;-71
2023/09/29 01:13:03;;;;;;;13.32;2.97;;;;;;;;;;5073155;28;20056;-70
2023/09/29 01:15:32;;;;;;;10.20;2.67;;;;;;;;;;5081658;28;20071;-71
2023/09/29 01:17:58;;;;;;;;;;;;;;;;;;5074396;28;20143;-71
2023/09/29 01:20:28;;;;;;;10.57;2.70;;;;;;;;;;5055216;28;19930;-71
2023/09/29 01:22:56;;;;;;;12.20;3.05;;;;;;;;;;5055764;28;20048;-71
2023/09/29 01:25:24;;;;;;;9.52;3.17;;;;;;;;;;5060112;28;20088;-71
2023/09/29 01:27:52;;;;;;;10.80;2.63;;;;;;;;;;5059746;28;20139;-72
2023/09/29 01:30:19;;;;;;;15.30;3.13;;;;;;;;;;5055410;28;20057;-70
2023/09/29 01:32:47;;;;;;;11.87;2.57;;;;;;;;;;5053675;28;20048;-71
2023/09/29 01:35:17;;;;;;;16.80;3.03;;;;;;;;;;5059530;28;20067;-70
2023/09/29 01:37:46;;;;;;;9.65;3.10;;;;;;;;;;5061407;28;20066;-71
2023/09/29 01:40:13;;;;;;;;;;;;;;;;;;5077700;28;20068;-70
2023/09/29 01:42:41;;;;;;;7.45;2.35;;;;;;;;;;5072510;28;20031;-72
2023/09/29 01:45:15;;;;;;;11.52;2.90;;;;;;;;;;5079586;28;20056;-71
2023/09/29 01:47:44;;;;;;;13.63;2.95;;;;;;;;;;5079120;28;20062;-71
2023/09/29 01:50:12;;;;;;;12.40;2.95;;;;;;;;;;5074650;28;20060;-71
2023/09/29 01:52:39;;;;;;;11.73;2.67;;;;;;;;;;5075682;28;20109;-71
2023/09/29 01:55:11;;;;;;;14.73;3.22;;;;;;;;;;5083107;28;20044;-71
2023/09/29 01:57:39;;;;;;;11.18;2.97;;;;;;;;;;5081178;28;20096;-72
2023/09/29 02:00:11;;;;;;;9.43;3.17;;;;;;;;;;5074673;28;20048;-71
2023/09/29 02:02:38;;;;;;;9.57;3.05;;;;;;;;;;5072363;28;20060;-71
2023/09/29 02:05:07;;;;;;;9.02;3.28;;;;;;;;;;5038110;28;20048;-71
2023/09/29 02:07:36;;;;;;;18.98;3.30;;;;;;;;;;5058847;28;20064;-72
2023/09/29 02:10:03;;;;;;;13.93;3.28;;;;;;;;;;5063188;28;20077;-71
2023/09/29 02:12:31;;;;;;;14.57;3.20;;;;;;;;;;5058331;28;20152;-72
2023/09/29 02:14:58;;;;;;;13.07;3.27;;;;;;;;;;5065325;28;20174;-72
2023/09/29 02:17:27;;;;;;;9.35;3.25;;;;;;;;;;5070372;28;20298;-71
2023/09/29 02:19:54;;;;;;;10.10;3.35;;;;;;;;;;5059575;28;20140;-71
2023/09/29 02:22:21;;;;;;;9.82;2.90;;;;;;;;;;5074881;28;20070;-71
2023/09/29 02:24:48;;;;;;;12.52;3.58;;;;;;;;;;5069638;28;20070;-71
2023/09/29 02:27:16;;;;;;;11.38;3.15;;;;;;;;;;5053126;28;20052;-71
2023/09/29 02:29:43;;;;;;;10.45;3.47;;;;;;;;;;5057395;28;20057;-72
2023/09/29 02:32:10;;;;;;;11.82;4.15;;;;;;;;;;5058130;28;20060;-71
2023/09/29 02:34:38;;;;;;;10.90;3.03;;;;;;;;;;5059738;28;20109;-71
2023/09/29 02:37:08;;;;;;;13.57;4.13;;;;;;;;;;5074611;28;20052;-71
2023/09/29 02:39:35;;;;;;;9.23;3.00;;;;;;;;;;5067133;28;20132;-71
2023/09/29 02:42:02;;;;;;;10.32;3.80;;;;;;;;;;5058246;28;20056;-71
2023/09/29 02:44:33;;;;;;;11.90;3.35;;;;;;;;;;5057302;28;20169;-70
2023/09/29 02:47:03;;;;;;;10.43;3.22;;;;;;;;;;5063198;28;20056;-72
2023/09/29 02:49:30;;;;;;;10.52;3.33;;;;;;;;;;5052764;28;20052;-71
2023/09/29 02:51:58;;;;;;;12.45;3.78;;;;;;;;;;5057333;28;20052;-70
2023/09/29 02:54:25;;;;;;;11.80;3.13;;;;;;;;;;5052885;28;20067;-70
2023/09/29 02:56:52;;;;;;;8.23;3.13;;;;;;;;;;5060497;28;20143;-71
2023/09/29 02:59:20;;;;;;;8.25;3.00;;;;;;;;;;5050280;28;20084;-70
2023/09/29 03:01:47;;;;;;;8.10;3.50;;;;;;;;;;5059354;28;20049;-71
2023/09/29 03:04:15;;;;;;;9.48;3.30;;;;;;;;;;5058256;28;20089;-71
2023/09/29 03:06:42;;;;;;;8.43;3.38;;;;;;;;;;5076735;28;20392;-71
2023/09/29 03:09:13;;;;;;;10.07;3.22;;;;;;;;;;5072966;28;20060;-71
2023/09/29 03:11:40;;;;;;;16.15;4.00;;;;;;;;;;5081822;28;20075;-71
2023/09/29 03:14:08;;;;;;;9.27;3.30;;;;;;;;;;5067718;28;20108;-71
2023/09/29 03:16:35;;;;;;;10.07;3.00;;;;;;;;;;5059077;28;20048;-70
2023/09/29 03:19:03;;;;;;;9.82;3.85;;;;;;;;;;5057808;28;20152;-71
2023/09/29 03:21:30;;;;;;;11.13;2.93;;;;;;;;;;5051054;28;20194;-71
2023/09/29 03:23:57;;;;;;;9.32;2.92;;;;;;;;;;5051313;28;20062;-71
2023/09/29 03:26:26;;;;;;;13.23;3.45;;;;;;;;;;5057431;28;20064;-71
2023/09/29 03:28:54;;;;;;;7.20;2.75;;;;;;;;;;5056465;28;20052;-71
2023/09/29 03:31:22;;;;;;;12.77;2.88;;;;;;;;;;5051100;28;20048;-71
2023/09/29 03:33:49;;;;;;;8.30;3.03;;;;;;;;;;5053007;28;20048;-71
2023/09/29 03:36:16;;;;;;;6.63;3.00;;;;;;;;;;5077322;28;20224;-70
2023/09/29 03:38:43;;;;;;;7.07;3.10;;;;;;;;;;5077881;28;20056;-71
2023/09/29 03:41:10;;;;;;;10.63;3.47;;;;;;;;;;5073532;28;20060;-72
2023/09/29 03:43:39;;;;;;;9.07;2.78;;;;;;;;;;5072680;28;20128;-70
2023/09/29 03:46:08;;;;;;;9.52;3.05;;;;;;;;;;5074855;28;20052;-72
2023/09/29 03:48:36;;;;;;;10.90;2.63;;;;;;;;;;5081820;28;20048;-71
2023/09/29 03:51:03;;;;;;;;;;;;;;;;;;5076962;28;20056;-71
2023/09/29 03:53:30;;;;;;;5.65;2.45;;;;;;;;;;5056867;28;19924;-71
2023/09/29 03:55:57;;;;;;;11.50;3.10;;;;;;;;;;5056286;28;20060;-70
2023/09/29 03:58:24;;;;;;;10.27;2.60;;;;;;;;;;5063347;28;20063;-70
2023/09/29 04:00:53;;;;;;;7.15;2.85;;;;;;;;;;5058210;28;20135;-70
2023/09/29 04:03:20;;;;;;;6.57;2.78;;;;;;;;;;5054465;28;20052;-71
2023/09/29 04:05:48;;;;;;;11.20;2.45;;;;;;;;;;5076285;28;20060;-71
2023/09/29 04:08:16;;;;;;;10.13;2.97;;;;;;;;;;5080974;28;20154;-71
2023/09/29 04:10:43;;;;;;;6.65;2.40;;;;;;;;;;5080121;28;20058;-71
2023/09/29 04:13:09;;;;;;;11.15;2.60;;;;;;;;;;5064700;28;20052;-72
2023/09/29 04:15:36;;;;;;;9.27;2.53;;;;;;;;;;5070528;28;20062;-72
2023/09/29 04:18:05;;;;;;;12.88;4.75;;;;;;;;;;5074526;28;20056;-71
2023/09/29 04:20:31;;;;;;;;;;;;;;;;;;5059333;28;20052;-71
2023/09/29 04:23:00;;;;;;;23.73;10.93;;;;;;;;;;5061336;28;20035;-71
2023/09/29 04:25:26;;;;;;;14.07;4.75;;;;;;;;;;5035411;28;20041;-70
2023/09/29 04:27:53;;;;;;;7.82;2.70;;;;;;;;;;5040956;28;20087;-71
2023/09/29 04:30:20;;;;;;;7.72;2.80;;;;;;;;;;5044512;28;20053;-71
2023/09/29 04:32:48;;;;;;;10.95;3.28;;;;;;;;;;5040697;28;20049;-70
2023/09/29 04:35:16;;;;;;;6.40;2.38;;;;;;;;;;5032241;28;20078;-71
2023/09/29 04:37:43;;;;;;;;;;;;;;;;;;5060877;28;20148;-71
2023/09/29 04:40:11;;;;;;;8.27;2.83;;;;;;;;;;5059397;28;19928;-70
2023/09/29 04:42:38;;;;;;;;;;;;;;;;;;5067361;28;20048;-70
2023/09/29 04:45:07;;;;;;;8.52;2.47;;;;;;;;;;5056451;28;20065;-70
2023/09/29 04:47:34;;;;;;;5.95;2.20;;;;;;;;;;5063668;28;20044;-70
2023/09/29 04:50:01;;;;;;;7.07;2.10;;;;;;;;;;5073951;28;20128;-70
2023/09/29 04:52:29;;;;;;;7.15;1.95;;;;;;;;;;5068719;28;20109;-71
2023/09/29 04:54:56;;;;;;;4.13;1.73;;;;;;;;;;5060345;28;20056;-70
2023/09/29 04:57:23;;;;;;;8.00;2.25;;;;;;;;;;5059062;28;20052;-70
2023/09/29 04:59:50;;;;;;;8.18;2.13;;;;;;;;;;5065235;28;20138;-70
2023/09/29 05:02:17;;;;;;;9.73;2.45;;;;;;;;;;5076477;28;20121;-71
2023/09/29 05:04:43;;;;;;;6.75;2.28;;;;;;;;;;5060031;28;20056;-70
2023/09/29 05:07:12;;;;;;;3.20;1.65;;;;;;;;;;5049121;28;20073;-69
2023/09/29 05:09:40;;;;;;;6.45;2.00;;;;;;;;;;5043326;28;20068;-71
2023/09/29 05:12:07;;;;;;;5.40;1.83;;;;;;;;;;5043979;28;20114;-71
2023/09/29 05:14:34;;;;;;;7.05;2.38;;;;;;;;;;5049920;28;20116;-70
2023/09/29 05:17:01;;;;;;;10.15;3.10;;;;;;;;;;5058388;28;20155;-70
2023/09/29 05:19:27;;;;;;;8.02;2.58;;;;;;;;;;5038564;28;20053;-69
2023/09/29 05:21:54;;;;;;;7.20;2.20;;;;;;;;;;5042582;28;20088;-69
2023/09/29 05:24:21;;;;;;;9.48;3.72;;;;;;;;;;5044186;28;20080;-70
2023/09/29 05:26:49;;;;;;;6.75;3.28;;;;;;;;;;5061166;28;20133;-70
2023/09/29 05:29:15;;;;;;;8.63;3.85;;;;;;;;;;5055018;28;20121;-71
2023/09/29 05:31:42;;;;;;;6.90;2.22;;;;;;;;;;5058329;28;20079;-70
2023/09/29 05:34:09;;;;;;;8.25;2.63;;;;;;;;;;5055449;28;20057;-70
2023/09/29 05:36:35;;;;;;;6.82;1.98;;;;;;;;;;5064805;28;20060;-70
2023/09/29 05:39:03;;;;;;;5.57;2.35;;;;;;;;;;5062076;28;20079;-71
2023/09/29 05:41:31;;;;;;;6.78;1.95;;;;;;;;;;5073748;28;21443;-71
2023/09/29 05:43:59;;;;;;;6.38;2.30;;;;;;;;;;5074359;27;20052;-70
2023/09/29 05:46:26;;;;;;;5.88;2.00;;;;;;;;;;5078724;28;20143;-70
2023/09/29 05:48:53;;;;;;;5.60;1.92;;;;;;;;;;5077761;28;20066;-70
2023/09/29 05:51:21;;;;;;;4.55;1.92;;;;;;;;;;5075788;28;20134;-70
2023/09/29 05:53:47;;;;;;;6.55;2.33;;;;;;;;;;5073591;28;20051;-70
2023/09/29 05:56:15;;;;;;;5.63;1.83;;;;;;;;;;5078723;28;20048;-71
2023/09/29 05:58:42;;;;;;;7.95;1.98;;;;;;;;;;5068585;28;20072;-70
2023/09/29 06:01:12;;;;;;;7.97;2.20;;;;;;;;;;5064135;28;20070;-71
2023/09/29 06:03:40;;;;;;;5.28;2.15;;;;;;;;;;5076269;28;20048;-70
2023/09/29 06:06:08;;;;;;;8.27;2.33;;;;;;;;;;5073214;28;20052;-71
2023/09/29 06:08:36;;;;;;;4.47;1.80;;;;;;;;;;5082620;28;20077;-72
2023/09/29 06:11:04;;;;;;;7.10;2.30;;;;;;;;;;5075990;28;20056;-70
2023/09/29 06:13:31;;;;;;;8.00;2.50;;;;;;;;;;5071381;28;20044;-70
2023/09/29 06:15:58;;;;;;;7.60;1.98;;;;;;;;;;5088015;28;20094;-71
2023/09/29 06:18:27;;;;;;;5.85;2.20;;;;;;;;;;5078182;28;20073;-70
2023/09/29 06:20:54;;;;;;;6.78;2.38;;;;;;;;;;5077514;28;20060;-70
2023/09/29 06:23:21;;;;;;;6.65;1.98;;;;;;;;;;5070691;27;20147;-71
2023/09/29 06:25:47;;;;;;;5.25;2.10;;;;;;;;;;5072268;28;20066;-70
2023/09/29 06:28:14;;;;;;;4.90;2.20;;;;;;;;;;5077760;28;20052;-72
2023/09/29 06:30:41;;;;;;;7.97;2.33;;;;;;;;;;5077212;28;20078;-73
2023/09/29 06:33:08;;;;;;;10.25;2.40;;;;;;;;;;5074763;28;20048;-70
2023/09/29 06:35:39;;;;;;;4.90;2.47;;;;;;;;;;5068901;28;20134;-72
2023/09/29 06:38:16;;;;;;;4.93;2.30;;;;;;;;;;5082962;28;20056;-71
2023/09/29 06:40:44;;;;;;;7.93;2.25;;;;;;;;;;5074722;28;20076;-71
2023/09/29 06:43:11;;;;;;;10.95;2.60;;;;;;;;;;5071164;28;20051;-72
2023/09/29 06:45:38;;;;;;;5.90;2.55;;;;;;;;;;5077426;28;20143;-70
2023/09/29 06:48:05;;;;;;;7.32;2.30;;;;;;;;;;5078337;28;20051;-71
2023/09/29 06:50:32;;;;;;;5.65;2.35;;;;;;;;;;5078154;28;20056;-71
2023/09/29 06:53:02;;;;;;;5.25;2.45;;;;;;;;;;5076573;28;20223;-70
2023/09/29 06:55:31;;;;;;;7.22;2.33;;;;;;;;;;5070439;28;20075;-70
2023/09/29 06:58:14;;;;;;;6.80;2.47;;;;;;;;;;5078301;28;20140;-71
2023/09/29 07:01:15;;;;;;;7.93;2.40;;;;;;;;;;5055011;28;20040;-71
2023/09/29 07:03:45;;;;;;;6.88;2.60;;;;;;;;;;5068924;28;20130;-70
2023/09/29 07:06:12;;;;;;;5.45;2.70;;;;;;;;;;4977546;28;20132;-70
2023/09/29 07:09:22;;;;;;;9.82;2.70;;;;;;;;;;5076030;28;20055;-71
2023/09/29 07:11:55;;;;;;;5.78;2.25;;;;;;;;;;5075437;28;20048;-71
2023/09/29 07:16:54;;;;;;;6.15;2.40;;;;;;;;;;4904933;28;20125;-71
2023/09/29 07:19:45;;;;;;;7.40;2.20;;;;;;;;;;4927963;28;20066;-72
2023/09/29 07:22:29;;;;;;;5.93;2.50;;;;;;;;;;4963875;28;20093;-70
2023/09/29 07:47:44;;;;;;;3.80;1.88;;;;;;;;;;5090553;27;20400;-71
2023/09/29 07:50:12;;;;;;;;;;;;;;;;;;5072676;28;20048;-70
2023/09/29 07:52:40;;;;;;;4.82;1.73;;;;;;;;;;5072828;28;19924;-71
2023/09/29 07:55:09;;;;;;;4.88;2.08;;;;;;;;;;5027561;28;20056;-71
2023/09/29 07:57:39;;;;;;;4.20;1.90;;;;;;;;;;5055076;28;20057;-71
2023/09/29 08:00:10;;;;;;;7.43;2.00;;;;;;;;;;5053667;28;20178;-71
2023/09/29 08:02:37;;;;;;;5.18;1.90;;;;;;;;;;5057250;28;20071;-71
2023/09/29 08:05:07;;;;;;;6.82;2.40;;;;;;;;;;5015259;28;20048;-70
2023/09/29 08:07:34;;;;;;;6.63;2.00;;;;;;;;;;5044282;28;20106;-71
2023/09/29 08:10:02;;;;;;;3.67;1.80;;;;;;;;;;5064654;28;20119;-71
2023/09/29 08:12:31;;;;;;;;;;;;;;;;;;5050507;28;20064;-71
2023/09/29 08:14:58;;;;;;;4.47;1.95;;;;;;;;;;5030733;28;19925;-70
2023/09/29 08:17:26;;;;;;;7.25;2.10;;;;;;;;;;5031713;28;20140;-71
2023/09/29 08:19:52;;;;;;;3.77;2.03;;;;;;;;;;5033444;28;20435;-72
2023/09/29 08:22:21;;;;;;;4.30;2.00;;;;;;;;;;5032559;28;20049;-71
2023/09/29 08:24:48;;;;;;;6.43;1.88;;;;;;;;;;5026449;28;20073;-71
2023/09/29 08:27:14;;;;;;;5.43;2.10;;;;;;;;;;5025189;28;20121;-71
2023/09/29 08:29:41;;;;;;;5.68;1.88;;;;;;;;;;5035899;28;20056;-72
2023/09/29 08:32:08;;;;;;;6.65;2.45;;;;;;;;;;5031542;28;20124;-71
2023/09/29 08:34:36;;;;;;;7.55;2.30;;;;;;;;;;5029464;28;20053;-71
2023/09/29 08:37:03;;;;;;;2.90;1.57;;;;;;;;;;5028967;28;20065;-71
2023/09/29 08:39:31;;;;;;;8.30;1.90;;;;;;;;;;5025997;28;20080;-72
2023/09/29 08:42:03;;;;;;;7.88;2.17;;;;;;;;;;5033010;28;20160;-71
2023/09/29 08:44:34;;;;;;;3.95;2.13;;;;;;;;;;5028807;28;20118;-72
2023/09/29 08:47:06;;;;;;;5.67;1.97;;;;;;;;;;5026713;28;20045;-70
2023/09/29 08:49:35;;;;;;;12.50;2.20;;;;;;;;;;5031072;28;20049;-71
2023/09/29 08:52:03;;;;;;;8.20;2.25;;;;;;;;;;5020071;28;20065;-71
2023/09/29 08:54:32;;;;;;;4.63;2.00;;;;;;;;;;5004004;28;20057;-72
2023/09/29 08:57:00;;;;;;;7.68;2.50;;;;;;;;;;4997180;28;20064;-71
2023/09/29 08:59:28;;;;;;;5.70;2.38;;;;;;;;;;5029010;28;20053;-71
2023/09/29 09:01:58;;;;;;;4.53;1.77;;;;;;;;;;5065791;28;20060;-71
2023/09/29 09:04:27;;;;;;;6.07;2.10;;;;;;;;;;5037517;28;20052;-71
2023/09/29 09:06:54;;;;;;;6.03;2.10;;;;;;;;;;5015219;28;20061;-71
2023/09/29 09:09:23;;;;;;;4.57;1.90;;;;;;;;;;5043987;28;20084;-71
2023/09/29 09:11:53;;;;;;;6.18;1.98;;;;;;;;;;5024324;28;20041;-71
2023/09/29 09:14:20;;;;;;;4.75;1.88;;;;;;;;;;5018423;28;20057;-72
2023/09/29 09:16:47;;;;;;;8.57;2.10;;;;;;;;;;5012665;28;20062;-72
2023/09/29 09:19:15;;;;;;;4.35;1.52;;;;;;;;;;5032561;28;20071;-71
2023/09/29 09:21:43;;;;;;;6.10;1.80;;;;;;;;;;5037571;28;20057;-71
2023/09/29 09:24:23;;;;;;;7.43;2.30;;;;;;;;;;5038572;28;20079;-72
2023/09/29 09:26:53;;;;;;;5.35;1.73;;;;;;;;;;5032363;28;20063;-71
2023/09/29 09:29:20;;;;;;;5.45;1.70;;;;;;;;;;5037273;28;20053;-72
2023/09/29 09:31:50;;;;;;;4.18;1.60;;;;;;;;;;5039254;28;20060;-71
2023/09/29 09:34:17;;;;;;;6.07;1.73;;;;;;;;;;5037313;28;20116;-73
2023/09/29 09:36:45;;;;;;;6.70;2.10;;;;;;;;;;5036853;28;20053;-71
2023/09/29 09:39:15;;;;;;;5.55;1.77;;;;;;;;;;5030714;28;20064;-71
2023/09/29 09:41:45;;;;;;;5.20;1.80;;;;;;;;;;5037391;28;20130;-70
2023/09/29 09:44:17;;;;;;;6.90;2.10;;;;;;;;;;5036897;28;20045;-70
2023/09/29 09:46:53;;;;;;;8.85;1.95;;;;;;;;;;4997063;28;20068;-73
2023/09/29 09:49:29;;;;;;;9.90;2.40;;;;;;;;;;5023465;28;20053;-71
2023/09/29 09:52:03;;;;;;;6.63;1.85;;;;;;;;;;5036938;28;20053;-71
2023/09/29 09:54:34;;;;;;;5.75;1.80;;;;;;;;;;5032228;28;20087;-69
2023/09/29 09:57:08;;;;;;;9.70;2.00;;;;;;;;;;5037954;28;20177;-72
2023/09/29 09:59:39;;;;;;;7.55;2.22;;;;;;;;;;5055876;28;20056;-73
2023/09/29 10:02:07;;;;;;;9.60;1.85;;;;;;;;;;5040778;28;20045;-71
2023/09/29 10:04:36;;;;;;;9.75;1.95;;;;;;;;;;5028590;28;20251;-72
2023/09/29 10:07:04;;;;;;;6.40;1.70;;;;;;;;;;5033830;28;20087;-72
2023/09/29 10:09:43;;;;;;;5.17;1.57;;;;;;;;;;5030697;28;21092;-72
2023/09/29 10:12:23;;;;;;;7.18;2.13;;;;;;;;;;5036622;28;20049;-70
2023/09/29 10:14:53;;;;;;;10.40;1.70;;;;;;;;;;5002348;28;20076;-70
2023/09/29 10:17:22;;;;;;;6.13;2.08;;;;;;;;;;4946657;28;20068;-71
2023/09/29 10:19:54;;;;;;;6.93;1.40;;;;;;;;;;5015843;28;20149;-69
2023/09/29 10:22:28;;;;;;;4.43;1.50;;;;;;;;;;5016716;28;20077;-72
2023/09/29 10:24:59;;;;;;;5.68;1.65;;;;;;;;;;5014769;28;20069;-71
2023/09/29 10:27:30;;;;;;;6.75;1.98;;;;;;;;;;5002394;28;21509;-74
2023/09/29 10:30:19;;;;;;;8.38;1.63;;;;;;;;;;5036528;28;20060;-71
2023/09/29 10:32:47;;;;;;;;;;;;;;;;;;5036542;28;20147;-71
2023/09/29 10:35:19;;;;;;;6.55;1.75;;;;;;;;;;5013123;28;19978;-70
2023/09/29 10:37:49;;;;;;;5.03;1.50;;;;;;;;;;5048292;28;20040;-71
2023/09/29 10:40:21;;;;;;;6.43;1.83;;;;;;;;;;5057037;28;20045;-69
2023/09/29 10:42:48;;;;;;;8.25;1.70;;;;;;;;;;5037136;28;20073;-72
2023/09/29 10:45:28;;;;;;;3.42;1.60;;;;;;;;;;5016967;28;20087;-71
2023/09/29 10:48:01;;;;;;;6.97;1.77;;;;;;;;;;5017781;28;20064;-73
2023/09/29 10:50:29;;;;;;;5.25;1.70;;;;;;;;;;5021265;28;20104;-72
2023/09/29 10:52:56;;;;;;;9.02;1.48;;;;;;;;;;5050424;28;20057;-72
2023/09/29 10:55:23;;;;;;;6.75;1.83;;;;;;;;;;4964881;28;20305;-70
2023/09/29 10:57:51;;;;;;;5.80;2.45;;;;;;;;;;5016222;28;20318;-72
2023/09/29 11:00:19;;;;;;;9.95;5.30;;;;;;;;;;5020810;28;20073;-73
2023/09/29 11:02:49;;;;;;;14.35;2.25;;;;;;;;;;5015816;28;20041;-72
2023/09/29 11:05:16;;;;;;;5.25;1.90;;;;;;;;;;5005597;28;20057;-70
2023/09/29 11:07:46;;;;;;;3.43;1.77;;;;;;;;;;5035494;28;20048;-72
2023/09/29 11:10:14;;;;;;;6.70;2.30;;;;;;;;;;5034728;28;20307;-71
2023/09/29 11:12:45;;;;;;;7.72;2.78;;;;;;;;;;5025030;28;20060;-71
2023/09/29 11:15:13;;;;;;;12.50;2.53;;;;;;;;;;5009575;28;20164;-71
2023/09/29 11:17:45;;;;;;;7.10;1.98;;;;;;;;;;5014013;28;20053;-71
2023/09/29 11:20:25;;;;;;;5.75;1.80;;;;;;;;;;5053391;28;20047;-70
2023/09/29 11:23:11;;;;;;;7.28;2.25;;;;;;;;;;5021800;28;20049;-72
2023/09/29 11:28:39;;;;;;;4.22;1.70;;;;;;;;;;4961753;28;20084;-72
2023/09/29 11:31:08;;;;;;;7.28;1.40;;;;;;;;;;4964304;28;20050;-72
2023/09/29 11:33:44;;;;;;;6.55;1.40;;;;;;;;;;4957328;28;20053;-75
2023/09/29 11:49:33;;;;;;;5.47;1.20;;;;;;;;;;5048787;27;20372;-70
2023/09/29 11:52:03;;;;;;;5.05;1.60;;;;;;;;;;5055456;28;20136;-70
2023/09/29 11:54:33;;;;;;;2.92;1.40;;;;;;;;;;5056274;28;20079;-69
2023/09/29 11:57:02;;;;;;;6.80;1.52;;;;;;;;;;5023146;28;20036;-72
2023/09/29 11:59:34;;;;;;;6.03;1.77;;;;;;;;;;5030914;28;20063;-69
2023/09/29 12:02:05;;;;;;;4.68;1.80;;;;;;;;;;5039190;28;20072;-69
2023/09/29 12:04:45;;;;;;;5.72;1.80;;;;;;;;;;5034389;28;20079;-71
2023/09/29 12:07:14;;;;;;;7.95;1.83;;;;;;;;;;4993948;28;20079;-71
2023/09/29 12:09:46;;;;;;;5.78;1.70;;;;;;;;;;5025871;28;20117;-71
2023/09/29 12:12:14;;;;;;;5.93;1.58;;;;;;;;;;5042137;28;20063;-73
2023/09/29 12:15:14;;;;;;;3.97;1.40;;;;;;;;;;5051574;28;20084;-71
2023/09/29 12:17:55;;;;;;;4.38;1.15;;;;;;;;;;5004539;28;20065;-70
2023/09/29 12:20:24;;;;;;;3.55;0.90;;;;;;;;;;5057901;28;20048;-69
2023/09/29 12:22:51;;;;;;;6.20;1.02;;;;;;;;;;5059241;28;20060;-71
2023/09/29 12:25:18;;;;;;;3.10;0.98;;;;;;;;;;5047436;28;20064;-72
2023/09/29 12:27:52;;;;;;;3.55;1.15;;;;;;;;;;5046294;28;20056;-71
2023/09/29 12:30:22;;;;;;;4.15;1.08;;;;;;;;;;5047563;28;20053;-72
2023/09/29 12:32:53;;;;;;;3.70;1.00;;;;;;;;;;5036414;28;20152;-71
2023/09/29 12:35:20;;;;;;;6.88;1.13;;;;;;;;;;5029111;28;20075;-70
2023/09/29 12:37:49;;;;;;;4.03;1.00;;;;;;;;;;5013290;28;20147;-71
2023/09/29 12:40:16;;;;;;;2.38;0.82;;;;;;;;;;5013186;28;20057;-70
2023/09/29 12:42:47;;;;;;;2.13;0.93;;;;;;;;;;5014444;28;20141;-71
2023/09/29 12:45:15;;;;;;;2.13;0.80;;;;;;;;;;5008445;28;20132;-71
2023/09/29 12:47:42;;;;;;;2.25;0.90;;;;;;;;;;5011697;28;20064;-73
2023/09/29 12:50:10;;;;;;;3.72;1.33;;;;;;;;;;5036445;28;20054;-71
2023/09/29 12:52:40;;;;;;;2.35;0.80;;;;;;;;;;5005594;28;20068;-70
2023/09/29 12:55:11;;;;;;;2.00;1.17;;;;;;;;;;4997273;28;20116;-73
2023/09/29 12:57:38;;;;;;;3.42;0.90;;;;;;;;;;5003896;28;20065;-72
2023/09/29 13:00:07;;;;;;;3.00;1.02;;;;;;;;;;5013021;28;20053;-72
2023/09/29 13:02:34;;;;;;;2.13;1.10;;;;;;;;;;5013549;28;20049;-72
2023/09/29 13:05:06;;;;;;;3.40;1.20;;;;;;;;;;5000562;28;20081;-71
2023/09/29 13:07:38;;;;;;;2.20;0.90;;;;;;;;;;5002577;28;20056;-72
2023/09/29 13:10:07;;;;;;;2.92;0.88;;;;;;;;;;5022527;28;20060;-70
2023/09/29 13:12:35;;;;;;;4.03;1.23;;;;;;;;;;5033245;28;20079;-70
2023/09/29 13:15:05;;;;;;;3.58;0.90;;;;;;;;;;5038043;28;20057;-72
2023/09/29 13:17:32;;;;;;;1.92;0.90;;;;;;;;;;5027962;28;20053;-70
2023/09/29 13:19:59;;;;;;;2.50;1.02;;;;;;;;;;5039489;28;20056;-69
2023/09/29 13:22:26;;;;;;;4.80;0.93;;;;;;;;;;5040897;28;20115;-70
2023/09/29 13:24:54;;;;;;;7.90;0.98;;;;;;;;;;5040872;28;20088;-70
2023/09/29 13:27:21;;;;;;;2.38;0.80;;;;;;;;;;5026477;28;20152;-70
2023/09/29 13:29:50;;;;;;;6.18;0.90;;;;;;;;;;5038709;28;20132;-69
2023/09/29 13:32:18;;;;;;;2.33;0.80;;;;;;;;;;5006873;28;20074;-70
2023/09/29 13:34:47;;;;;;;3.97;1.10;;;;;;;;;;5025582;28;20057;-69
2023/09/29 13:37:18;;;;;;;5.20;1.00;;;;;;;;;;5036578;28;20064;-70
2023/09/29 13:39:47;;;;;;;2.28;0.85;;;;;;;;;;5051582;28;20119;-71
2023/09/29 13:42:16;;;;;;;6.45;0.88;;;;;;;;;;5019340;28;20050;-69
2023/09/29 13:44:49;;;;;;;7.35;0.93;;;;;;;;;;5019818;28;20057;-72
2023/09/29 13:47:33;;;;;;;6.22;1.27;;;;;;;;;;4943487;28;20064;-69
2023/09/29 13:50:10;;;;;;;3.72;1.10;;;;;;;;;;4989378;28;20050;-69
2023/09/29 13:52:40;;;;;;;4.78;0.80;;;;;;;;;;4999391;28;20060;-69
2023/09/29 13:55:12;;;;;;;6.13;1.05;;;;;;;;;;4996264;28;20053;-70
2023/09/29 13:57:43;;;;;;;3.45;1.10;;;;;;;;;;5013760;28;20052;-69
2023/09/29 14:00:12;;;;;;;4.60;0.80;;;;;;;;;;5021311;28;20061;-69
2023/09/29 14:02:43;;;;;;;5.07;1.05;;;;;;;;;;5018972;28;20065;-69
2023/09/29 14:05:21;;;;;;;;;;;;;;;;;;5012362;28;20076;-70
2023/09/29 14:07:48;;;;;;;4.22;1.10;;;;;;;;;;5006887;28;20007;-69
2023/09/29 14:10:19;;;;;;;5.22;1.00;;;;;;;;;;5018651;28;20120;-69
2023/09/29 14:12:45;;;;;;;5.40;1.20;;;;;;;;;;5028837;28;20123;-69
2023/09/29 14:15:12;;;;;;;7.18;1.35;;;;;;;;;;5027624;28;20068;-69
2023/09/29 14:17:39;;;;;;;5.78;1.17;;;;;;;;;;5034611;28;20056;-69
2023/09/29 14:20:09;;;;;;;10.73;2.00;;;;;;;;;;5040457;28;20053;-69
2023/09/29 14:22:36;;;;;;;5.88;1.33;;;;;;;;;;5071588;28;20072;-69
2023/09/29 14:25:18;;;;;;;5.18;1.20;;;;;;;;;;5007333;28;20045;-70
2023/09/29 14:27:46;;;;;;;6.45;1.38;;;;;;;;;;5006270;28;20199;-69
2023/09/29 14:30:13;;;;;;;9.57;1.50;;;;;;;;;;5018527;28;20053;-69
2023/09/29 14:32:40;;;;;;;4.15;1.02;;;;;;;;;;5018850;28;20064;-70
2023/09/29 14:35:11;;;;;;;15.27;1.98;;;;;;;;;;5015368;28;20144;-70
2023/09/29 14:37:40;;;;;;;8.35;1.55;;;;;;;;;;5014118;28;20041;-70
2023/09/29 14:40:10;;;;;;;5.30;1.27;;;;;;;;;;5017455;28;20109;-70
2023/09/29 14:42:36;;;;;;;9.35;1.70;;;;;;;;;;5020186;28;20077;-69
2023/09/29 14:45:04;;;;;;;9.90;1.77;;;;;;;;;;5017954;28;20061;-70
2023/09/29 14:47:31;;;;;;;8.95;2.17;;;;;;;;;;5010721;28;20167;-70
2023/09/29 14:49:59;;;;;;;8.13;1.50;;;;;;;;;;5017217;28;20045;-70
2023/09/29 14:52:27;;;;;;;6.63;1.45;;;;;;;;;;5017482;28;20057;-70
2023/09/29 14:54:56;;;;;;;10.43;1.83;;;;;;;;;;5049974;28;20064;-70
2023/09/29 14:57:23;;;;;;;10.48;1.52;;;;;;;;;;5006818;28;20053;-70
2023/09/29 14:59:50;;;;;;;11.00;2.05;;;;;;;;;;5018855;28;20104;-69
2023/09/29 15:02:31;;;;;;;6.53;1.35;;;;;;;;;;5050839;28;20049;-69
2023/09/29 15:05:00;;;;;;;9.70;1.70;;;;;;;;;;5020939;28;20060;-70
2023/09/29 15:07:29;;;;;;;11.85;4.25;;;;;;;;;;5004340;28;20177;-71
2023/09/29 15:09:56;;;;;;;35.85;15.75;;;;;;;;;;5018085;28;20049;-71
2023/09/29 15:12:23;;;;;;;12.63;2.65;;;;;;;;;;5015292;28;20053;-70
2023/09/29 15:14:52;;;;;;;10.75;1.58;;;;;;;;;;5018560;28;20076;-71
2023/09/29 15:17:19;;;;;;;8.93;1.70;;;;;;;;;;4989503;28;20089;-70
2023/09/29 15:19:46;;;;;;;10.38;1.70;;;;;;;;;;5019669;28;20056;-70
2023/09/29 15:22:13;;;;;;;5.57;1.45;;;;;;;;;;5019083;28;20111;-69
2023/09/29 15:24:42;;;;;;;8.20;1.73;;;;;;;;;;5019804;28;20079;-69
2023/09/29 15:27:09;;;;;;;10.48;1.70;;;;;;;;;;5002137;28;20075;-69
2023/09/29 15:29:36;;;;;;;10.00;1.88;;;;;;;;;;4998462;28;20088;-70
2023/09/29 15:32:03;;;;;;;7.28;1.70;;;;;;;;;;4997557;28;20054;-69
2023/09/29 15:34:30;;;;;;;8.38;1.48;;;;;;;;;;4997328;28;20058;-70
2023/09/29 15:36:56;;;;;;;10.52;1.67;;;;;;;;;;4996498;28;20065;-70